< < Back
Terminal Aerodrome Forecast


Current Version              Previous Versions:   1  2  3  4  5  6  7  8  9  

Terminal Aerodrome Forecast

703
FTUS44 KBMX 281720
TAFANB
TAF
KANB 281720Z 2818/2918 33007KT P6SM BKN070
     FM290200 00000KT P6SM FEW050=

Latest METAR

679
SAUS70 KWBC 292200
MTRANB
METAR KANB 292153Z AUTO 21008KT 10SM BKN041 OVC055 17/M01 A3022 RMK AO2
SLP240 T01671011


USA.gov is the U.S. government's official web portal to all federal, state and local government web resources and services.